sensor_id;sensor_type;location;lat;lon;timestamp;P1;durP1;ratioP1;P2;durP2;ratioP2
56051;SDS011;41919;42.648;23.384;2022-07-29T00:02:25;8.55;;;6.60;;
56051;SDS011;41919;42.648;23.384;2022-07-29T00:04:51;6.78;;;6.07;;
56051;SDS011;41919;42.648;23.384;2022-07-29T00:07:17;7.60;;;6.22;;
56051;SDS011;41919;42.648;23.384;2022-07-29T00:09:42;9.32;;;6.65;;
56051;SDS011;41919;42.648;23.384;2022-07-29T00:12:08;8.23;;;6.07;;
56051;SDS011;41919;42.648;23.384;2022-07-29T00:14:34;9.18;;;6.40;;
56051;SDS011;41919;42.648;23.384;2022-07-29T00:16:59;8.75;;;7.28;;
56051;SDS011;41919;42.648;23.384;2022-07-29T00:19:25;8.30;;;6.95;;
56051;SDS011;41919;42.648;23.384;2022-07-29T00:21:50;9.73;;;7.07;;
56051;SDS011;41919;42.648;23.384;2022-07-29T00:24:15;10.75;;;6.28;;
56051;SDS011;41919;42.648;23.384;2022-07-29T00:26:41;8.57;;;6.20;;
56051;SDS011;41919;42.648;23.384;2022-07-29T00:29:06;8.98;;;6.60;;
56051;SDS011;41919;42.648;23.384;2022-07-29T00:31:32;8.60;;;6.47;;
56051;SDS011;41919;42.648;23.384;2022-07-29T00:33:57;8.10;;;6.20;;
56051;SDS011;41919;42.648;23.384;2022-07-29T00:36:22;8.52;;;6.85;;
56051;SDS011;41919;42.648;23.384;2022-07-29T00:38:48;9.30;;;6.90;;
56051;SDS011;41919;42.648;23.384;2022-07-29T00:41:14;8.00;;;6.75;;
56051;SDS011;41919;42.648;23.384;2022-07-29T00:43:40;9.18;;;6.95;;
56051;SDS011;41919;42.648;23.384;2022-07-29T00:46:06;9.02;;;7.38;;
56051;SDS011;41919;42.648;23.384;2022-07-29T00:48:32;9.65;;;7.10;;
56051;SDS011;41919;42.648;23.384;2022-07-29T00:50:58;7.95;;;6.63;;
56051;SDS011;41919;42.648;23.384;2022-07-29T00:53:26;8.93;;;6.65;;
56051;SDS011;41919;42.648;23.384;2022-07-29T00:55:53;9.40;;;6.57;;
56051;SDS011;41919;42.648;23.384;2022-07-29T00:58:20;11.05;;;7.18;;
56051;SDS011;41919;42.648;23.384;2022-07-29T01:00:45;9.50;;;7.20;;
56051;SDS011;41919;42.648;23.384;2022-07-29T01:03:10;9.18;;;6.72;;
56051;SDS011;41919;42.648;23.384;2022-07-29T01:05:36;6.75;;;6.15;;
56051;SDS011;41919;42.648;23.384;2022-07-29T01:08:02;7.57;;;6.18;;
56051;SDS011;41919;42.648;23.384;2022-07-29T01:10:28;9.23;;;6.85;;
56051;SDS011;41919;42.648;23.384;2022-07-29T01:12:56;7.53;;;6.43;;
56051;SDS011;41919;42.648;23.384;2022-07-29T01:15:23;8.80;;;6.80;;
56051;SDS011;41919;42.648;23.384;2022-07-29T01:20:54;9.18;;;7.03;;
56051;SDS011;41919;42.648;23.384;2022-07-29T01:26:28;8.77;;;6.60;;
56051;SDS011;41919;42.648;23.384;2022-07-29T01:31:31;8.80;;;6.47;;
56051;SDS011;41919;42.648;23.384;2022-07-29T01:34:05;8.77;;;6.85;;
56051;SDS011;41919;42.648;23.384;2022-07-29T01:36:56;9.43;;;6.47;;
56051;SDS011;41919;42.648;23.384;2022-07-29T01:39:37;9.82;;;6.75;;
56051;SDS011;41919;42.648;23.384;2022-07-29T01:42:22;7.57;;;6.72;;
56051;SDS011;41919;42.648;23.384;2022-07-29T01:44:59;8.27;;;6.75;;
56051;SDS011;41919;42.648;23.384;2022-07-29T01:48:05;6.97;;;5.97;;
56051;SDS011;41919;42.648;23.384;2022-07-29T01:50:44;7.82;;;7.03;;
56051;SDS011;41919;42.648;23.384;2022-07-29T01:53:14;10.25;;;6.70;;
56051;SDS011;41919;42.648;23.384;2022-07-29T01:55:46;12.00;;;6.70;;
56051;SDS011;41919;42.648;23.384;2022-07-29T01:58:14;7.57;;;6.43;;
56051;SDS011;41919;42.648;23.384;2022-07-29T02:00:43;11.18;;;6.85;;
56051;SDS011;41919;42.648;23.384;2022-07-29T02:03:11;8.65;;;6.70;;
56051;SDS011;41919;42.648;23.384;2022-07-29T02:05:40;9.98;;;7.10;;
56051;SDS011;41919;42.648;23.384;2022-07-29T02:08:07;9.60;;;6.18;;
56051;SDS011;41919;42.648;23.384;2022-07-29T02:10:34;8.05;;;6.15;;
56051;SDS011;41919;42.648;23.384;2022-07-29T02:13:03;10.90;;;6.40;;
56051;SDS011;41919;42.648;23.384;2022-07-29T02:15:32;10.38;;;6.50;;
56051;SDS011;41919;42.648;23.384;2022-07-29T02:18:09;6.80;;;5.85;;
56051;SDS011;41919;42.648;23.384;2022-07-29T02:20:39;8.07;;;6.65;;
56051;SDS011;41919;42.648;23.384;2022-07-29T02:23:10;7.90;;;6.07;;
56051;SDS011;41919;42.648;23.384;2022-07-29T02:25:37;11.75;;;6.47;;
56051;SDS011;41919;42.648;23.384;2022-07-29T02:28:06;8.93;;;6.75;;
56051;SDS011;41919;42.648;23.384;2022-07-29T02:30:32;8.13;;;6.78;;
56051;SDS011;41919;42.648;23.384;2022-07-29T02:33:01;8.18;;;6.15;;
56051;SDS011;41919;42.648;23.384;2022-07-29T02:35:29;8.75;;;6.45;;
56051;SDS011;41919;42.648;23.384;2022-07-29T02:37:55;18.90;;;6.63;;
56051;SDS011;41919;42.648;23.384;2022-07-29T02:40:39;10.15;;;6.85;;
56051;SDS011;41919;42.648;23.384;2022-07-29T02:43:07;8.45;;;6.70;;
56051;SDS011;41919;42.648;23.384;2022-07-29T02:45:34;8.88;;;5.78;;
56051;SDS011;41919;42.648;23.384;2022-07-29T02:48:00;10.20;;;7.40;;
56051;SDS011;41919;42.648;23.384;2022-07-29T02:50:35;7.45;;;6.38;;
56051;SDS011;41919;42.648;23.384;2022-07-29T02:55:58;9.57;;;5.88;;
56051;SDS011;41919;42.648;23.384;2022-07-29T03:00:55;8.63;;;6.22;;
56051;SDS011;41919;42.648;23.384;2022-07-29T03:03:24;10.05;;;6.55;;
56051;SDS011;41919;42.648;23.384;2022-07-29T03:05:56;8.63;;;6.60;;
56051;SDS011;41919;42.648;23.384;2022-07-29T03:08:22;11.75;;;7.32;;
56051;SDS011;41919;42.648;23.384;2022-07-29T03:10:49;9.63;;;6.70;;
56051;SDS011;41919;42.648;23.384;2022-07-29T03:13:16;8.73;;;6.88;;
56051;SDS011;41919;42.648;23.384;2022-07-29T03:15:43;9.45;;;7.25;;
56051;SDS011;41919;42.648;23.384;2022-07-29T03:18:09;11.77;;;8.75;;
56051;SDS011;41919;42.648;23.384;2022-07-29T03:20:36;13.25;;;8.10;;
56051;SDS011;41919;42.648;23.384;2022-07-29T03:23:03;11.77;;;8.73;;
56051;SDS011;41919;42.648;23.384;2022-07-29T03:25:29;13.27;;;8.32;;
56051;SDS011;41919;42.648;23.384;2022-07-29T03:27:55;11.10;;;8.45;;
56051;SDS011;41919;42.648;23.384;2022-07-29T03:30:21;11.65;;;9.02;;
56051;SDS011;41919;42.648;23.384;2022-07-29T03:32:47;12.15;;;9.70;;
56051;SDS011;41919;42.648;23.384;2022-07-29T03:35:13;12.52;;;9.05;;
56051;SDS011;41919;42.648;23.384;2022-07-29T03:37:41;11.93;;;8.75;;
56051;SDS011;41919;42.648;23.384;2022-07-29T03:40:07;12.98;;;9.40;;
56051;SDS011;41919;42.648;23.384;2022-07-29T03:42:35;17.98;;;10.02;;
56051;SDS011;41919;42.648;23.384;2022-07-29T03:45:08;15.02;;;10.55;;
56051;SDS011;41919;42.648;23.384;2022-07-29T03:47:39;13.35;;;10.55;;
56051;SDS011;41919;42.648;23.384;2022-07-29T03:50:18;15.48;;;10.95;;
56051;SDS011;41919;42.648;23.384;2022-07-29T03:52:46;14.90;;;10.70;;
56051;SDS011;41919;42.648;23.384;2022-07-29T03:55:13;13.52;;;9.88;;
56051;SDS011;41919;42.648;23.384;2022-07-29T03:57:39;17.23;;;9.38;;
56051;SDS011;41919;42.648;23.384;2022-07-29T04:00:05;13.40;;;10.65;;
56051;SDS011;41919;42.648;23.384;2022-07-29T04:02:33;12.65;;;9.60;;
56051;SDS011;41919;42.648;23.384;2022-07-29T04:04:59;9.43;;;7.32;;
56051;SDS011;41919;42.648;23.384;2022-07-29T04:07:24;10.50;;;7.78;;
56051;SDS011;41919;42.648;23.384;2022-07-29T04:09:50;9.15;;;7.50;;
56051;SDS011;41919;42.648;23.384;2022-07-29T04:12:15;7.80;;;6.90;;
56051;SDS011;41919;42.648;23.384;2022-07-29T04:14:41;8.45;;;6.20;;
56051;SDS011;41919;42.648;23.384;2022-07-29T04:17:06;8.38;;;6.40;;
56051;SDS011;41919;42.648;23.384;2022-07-29T04:19:32;9.88;;;6.65;;
56051;SDS011;41919;42.648;23.384;2022-07-29T04:21:58;9.00;;;6.70;;
56051;SDS011;41919;42.648;23.384;2022-07-29T04:24:24;8.30;;;5.88;;
56051;SDS011;41919;42.648;23.384;2022-07-29T04:26:50;7.53;;;6.35;;
56051;SDS011;41919;42.648;23.384;2022-07-29T04:29:16;9.90;;;6.00;;
56051;SDS011;41919;42.648;23.384;2022-07-29T04:31:41;9.15;;;5.75;;
56051;SDS011;41919;42.648;23.384;2022-07-29T04:34:08;6.13;;;5.15;;
56051;SDS011;41919;42.648;23.384;2022-07-29T04:36:34;8.07;;;5.43;;
56051;SDS011;41919;42.648;23.384;2022-07-29T04:38:59;7.47;;;5.40;;
56051;SDS011;41919;42.648;23.384;2022-07-29T04:41:26;7.35;;;5.10;;
56051;SDS011;41919;42.648;23.384;2022-07-29T04:43:52;5.00;;;4.50;;
56051;SDS011;41919;42.648;23.384;2022-07-29T04:46:17;6.13;;;5.15;;
56051;SDS011;41919;42.648;23.384;2022-07-29T04:48:45;6.55;;;5.00;;
56051;SDS011;41919;42.648;23.384;2022-07-29T04:51:11;6.35;;;5.03;;
56051;SDS011;41919;42.648;23.384;2022-07-29T04:53:37;6.78;;;4.82;;
56051;SDS011;41919;42.648;23.384;2022-07-29T04:56:02;5.25;;;4.75;;
56051;SDS011;41919;42.648;23.384;2022-07-29T04:58:28;5.50;;;4.55;;
56051;SDS011;41919;42.648;23.384;2022-07-29T05:00:53;8.05;;;4.85;;
56051;SDS011;41919;42.648;23.384;2022-07-29T05:03:18;7.90;;;4.47;;
56051;SDS011;41919;42.648;23.384;2022-07-29T05:05:44;5.63;;;5.13;;
56051;SDS011;41919;42.648;23.384;2022-07-29T05:08:09;6.22;;;4.82;;
56051;SDS011;41919;42.648;23.384;2022-07-29T05:10:35;6.18;;;4.28;;
56051;SDS011;41919;42.648;23.384;2022-07-29T05:13:04;6.72;;;4.07;;
56051;SDS011;41919;42.648;23.384;2022-07-29T05:15:31;6.75;;;4.70;;
56051;SDS011;41919;42.648;23.384;2022-07-29T05:17:57;4.90;;;4.18;;
56051;SDS011;41919;42.648;23.384;2022-07-29T05:20:23;8.40;;;4.70;;
56051;SDS011;41919;42.648;23.384;2022-07-29T05:22:53;6.15;;;4.55;;
56051;SDS011;41919;42.648;23.384;2022-07-29T05:25:19;6.32;;;5.35;;
56051;SDS011;41919;42.648;23.384;2022-07-29T05:27:45;5.95;;;5.35;;
56051;SDS011;41919;42.648;23.384;2022-07-29T05:30:10;11.52;;;4.60;;
56051;SDS011;41919;42.648;23.384;2022-07-29T05:32:36;5.50;;;4.95;;
56051;SDS011;41919;42.648;23.384;2022-07-29T05:35:01;7.55;;;5.47;;
56051;SDS011;41919;42.648;23.384;2022-07-29T05:37:27;9.43;;;5.40;;
56051;SDS011;41919;42.648;23.384;2022-07-29T05:39:52;5.90;;;5.25;;
56051;SDS011;41919;42.648;23.384;2022-07-29T05:42:18;5.53;;;5.03;;
56051;SDS011;41919;42.648;23.384;2022-07-29T05:44:43;6.18;;;4.40;;
56051;SDS011;41919;42.648;23.384;2022-07-29T05:47:09;6.40;;;5.20;;
56051;SDS011;41919;42.648;23.384;2022-07-29T05:49:34;9.30;;;5.20;;
56051;SDS011;41919;42.648;23.384;2022-07-29T05:52:00;6.68;;;5.40;;
56051;SDS011;41919;42.648;23.384;2022-07-29T05:54:25;7.78;;;4.88;;
56051;SDS011;41919;42.648;23.384;2022-07-29T05:56:50;5.78;;;5.03;;
56051;SDS011;41919;42.648;23.384;2022-07-29T05:59:16;6.57;;;5.55;;
56051;SDS011;41919;42.648;23.384;2022-07-29T06:01:41;6.07;;;5.40;;
56051;SDS011;41919;42.648;23.384;2022-07-29T06:04:07;8.75;;;5.35;;
56051;SDS011;41919;42.648;23.384;2022-07-29T06:06:33;6.90;;;5.68;;
56051;SDS011;41919;42.648;23.384;2022-07-29T06:08:59;7.32;;;4.53;;
56051;SDS011;41919;42.648;23.384;2022-07-29T06:11:25;8.18;;;5.10;;
56051;SDS011;41919;42.648;23.384;2022-07-29T06:13:51;5.65;;;4.93;;
56051;SDS011;41919;42.648;23.384;2022-07-29T06:16:16;6.57;;;5.82;;
56051;SDS011;41919;42.648;23.384;2022-07-29T06:18:42;5.30;;;4.72;;
56051;SDS011;41919;42.648;23.384;2022-07-29T06:21:09;7.28;;;5.57;;
56051;SDS011;41919;42.648;23.384;2022-07-29T06:23:36;6.57;;;5.70;;
56051;SDS011;41919;42.648;23.384;2022-07-29T06:26:02;8.50;;;5.25;;
56051;SDS011;41919;42.648;23.384;2022-07-29T06:28:28;6.20;;;5.10;;
56051;SDS011;41919;42.648;23.384;2022-07-29T06:30:53;6.13;;;5.15;;
56051;SDS011;41919;42.648;23.384;2022-07-29T06:33:19;5.82;;;4.70;;
56051;SDS011;41919;42.648;23.384;2022-07-29T06:35:44;5.07;;;4.63;;
56051;SDS011;41919;42.648;23.384;2022-07-29T06:38:12;5.25;;;4.75;;
56051;SDS011;41919;42.648;23.384;2022-07-29T06:40:44;5.65;;;5.13;;
56051;SDS011;41919;42.648;23.384;2022-07-29T06:43:26;5.05;;;4.63;;
56051;SDS011;41919;42.648;23.384;2022-07-29T06:45:53;5.88;;;4.32;;
56051;SDS011;41919;42.648;23.384;2022-07-29T06:48:19;6.00;;;4.88;;
56051;SDS011;41919;42.648;23.384;2022-07-29T06:50:44;5.30;;;4.82;;
56051;SDS011;41919;42.648;23.384;2022-07-29T06:53:10;5.30;;;4.55;;
56051;SDS011;41919;42.648;23.384;2022-07-29T06:55:36;6.53;;;5.10;;
56051;SDS011;41919;42.648;23.384;2022-07-29T06:58:02;5.28;;;4.78;;
56051;SDS011;41919;42.648;23.384;2022-07-29T07:00:27;7.78;;;5.00;;
56051;SDS011;41919;42.648;23.384;2022-07-29T07:02:53;6.97;;;4.53;;
56051;SDS011;41919;42.648;23.384;2022-07-29T07:05:18;4.82;;;4.35;;
56051;SDS011;41919;42.648;23.384;2022-07-29T07:07:44;4.32;;;4.00;;
56051;SDS011;41919;42.648;23.384;2022-07-29T07:10:09;5.57;;;3.90;;
56051;SDS011;41919;42.648;23.384;2022-07-29T07:12:34;4.95;;;4.20;;
56051;SDS011;41919;42.648;23.384;2022-07-29T07:15:00;6.03;;;3.80;;
56051;SDS011;41919;42.648;23.384;2022-07-29T07:17:25;4.10;;;3.70;;
56051;SDS011;41919;42.648;23.384;2022-07-29T07:19:51;4.20;;;3.33;;
56051;SDS011;41919;42.648;23.384;2022-07-29T07:22:16;5.85;;;3.70;;
56051;SDS011;41919;42.648;23.384;2022-07-29T07:24:41;3.40;;;3.20;;
56051;SDS011;41919;42.648;23.384;2022-07-29T07:27:07;4.25;;;3.50;;
56051;SDS011;41919;42.648;23.384;2022-07-29T07:29:32;3.75;;;3.45;;
56051;SDS011;41919;42.648;23.384;2022-07-29T07:31:58;3.50;;;3.20;;
56051;SDS011;41919;42.648;23.384;2022-07-29T07:34:23;3.47;;;3.17;;
56051;SDS011;41919;42.648;23.384;2022-07-29T07:36:48;3.60;;;3.25;;
56051;SDS011;41919;42.648;23.384;2022-07-29T07:39:14;5.05;;;3.60;;
56051;SDS011;41919;42.648;23.384;2022-07-29T07:41:39;6.32;;;3.60;;
56051;SDS011;41919;42.648;23.384;2022-07-29T07:44:05;3.67;;;3.03;;
56051;SDS011;41919;42.648;23.384;2022-07-29T07:46:31;3.92;;;3.53;;
56051;SDS011;41919;42.648;23.384;2022-07-29T07:48:56;3.08;;;2.88;;
56051;SDS011;41919;42.648;23.384;2022-07-29T07:51:21;3.55;;;3.05;;
56051;SDS011;41919;42.648;23.384;2022-07-29T07:53:47;5.90;;;3.17;;
56051;SDS011;41919;42.648;23.384;2022-07-29T07:56:15;3.28;;;2.95;;
56051;SDS011;41919;42.648;23.384;2022-07-29T07:58:41;3.10;;;2.90;;
56051;SDS011;41919;42.648;23.384;2022-07-29T08:01:07;4.60;;;3.22;;
56051;SDS011;41919;42.648;23.384;2022-07-29T08:03:33;3.20;;;2.90;;
56051;SDS011;41919;42.648;23.384;2022-07-29T08:05:58;4.00;;;3.00;;
56051;SDS011;41919;42.648;23.384;2022-07-29T08:08:24;3.92;;;3.15;;
56051;SDS011;41919;42.648;23.384;2022-07-29T08:10:49;3.85;;;3.17;;
56051;SDS011;41919;42.648;23.384;2022-07-29T08:13:22;2.97;;;2.78;;
56051;SDS011;41919;42.648;23.384;2022-07-29T08:15:50;3.22;;;2.50;;
56051;SDS011;41919;42.648;23.384;2022-07-29T08:18:42;3.47;;;3.05;;
56051;SDS011;41919;42.648;23.384;2022-07-29T08:21:10;5.25;;;4.30;;
56051;SDS011;41919;42.648;23.384;2022-07-29T08:23:36;5.13;;;2.97;;
56051;SDS011;41919;42.648;23.384;2022-07-29T08:26:09;3.28;;;2.60;;
56051;SDS011;41919;42.648;23.384;2022-07-29T08:28:45;4.43;;;2.85;;
56051;SDS011;41919;42.648;23.384;2022-07-29T08:31:14;2.97;;;2.42;;
56051;SDS011;41919;42.648;23.384;2022-07-29T08:33:41;3.35;;;2.67;;
56051;SDS011;41919;42.648;23.384;2022-07-29T08:36:06;2.67;;;2.47;;
56051;SDS011;41919;42.648;23.384;2022-07-29T08:38:32;2.65;;;2.20;;
56051;SDS011;41919;42.648;23.384;2022-07-29T08:40:58;3.92;;;2.65;;
56051;SDS011;41919;42.648;23.384;2022-07-29T08:43:25;3.75;;;2.67;;
56051;SDS011;41919;42.648;23.384;2022-07-29T08:45:52;2.60;;;2.40;;
56051;SDS011;41919;42.648;23.384;2022-07-29T08:48:18;2.88;;;2.55;;
56051;SDS011;41919;42.648;23.384;2022-07-29T08:50:46;5.88;;;2.50;;
56051;SDS011;41919;42.648;23.384;2022-07-29T08:53:13;2.60;;;2.40;;
56051;SDS011;41919;42.648;23.384;2022-07-29T08:55:46;4.03;;;2.60;;
56051;SDS011;41919;42.648;23.384;2022-07-29T08:58:13;3.30;;;2.28;;
56051;SDS011;41919;42.648;23.384;2022-07-29T09:00:43;3.25;;;2.30;;
56051;SDS011;41919;42.648;23.384;2022-07-29T09:03:12;3.45;;;2.50;;
56051;SDS011;41919;42.648;23.384;2022-07-29T09:05:41;2.72;;;2.50;;
56051;SDS011;41919;42.648;23.384;2022-07-29T09:08:07;2.88;;;2.67;;
56051;SDS011;41919;42.648;23.384;2022-07-29T09:10:34;3.95;;;3.63;;
56051;SDS011;41919;42.648;23.384;2022-07-29T09:13:01;3.30;;;3.00;;
56051;SDS011;41919;42.648;23.384;2022-07-29T09:15:26;2.88;;;2.63;;
56051;SDS011;41919;42.648;23.384;2022-07-29T09:17:52;4.25;;;2.58;;
56051;SDS011;41919;42.648;23.384;2022-07-29T09:20:20;2.80;;;2.50;;
56051;SDS011;41919;42.648;23.384;2022-07-29T09:22:47;3.35;;;3.13;;
56051;SDS011;41919;42.648;23.384;2022-07-29T09:25:15;3.65;;;2.95;;
56051;SDS011;41919;42.648;23.384;2022-07-29T09:28:04;3.45;;;3.15;;
56051;SDS011;41919;42.648;23.384;2022-07-29T09:30:53;4.53;;;3.58;;
56051;SDS011;41919;42.648;23.384;2022-07-29T09:33:23;5.07;;;3.40;;
56051;SDS011;41919;42.648;23.384;2022-07-29T09:35:58;3.30;;;3.00;;
56051;SDS011;41919;42.648;23.384;2022-07-29T09:38:31;3.35;;;3.08;;
56051;SDS011;41919;42.648;23.384;2022-07-29T09:40:58;3.05;;;2.75;;
56051;SDS011;41919;42.648;23.384;2022-07-29T09:43:25;4.50;;;3.30;;
56051;SDS011;41919;42.648;23.384;2022-07-29T09:45:51;3.53;;;3.22;;
56051;SDS011;41919;42.648;23.384;2022-07-29T09:48:18;3.42;;;3.13;;
56051;SDS011;41919;42.648;23.384;2022-07-29T09:50:48;5.22;;;3.15;;
56051;SDS011;41919;42.648;23.384;2022-07-29T09:56:02;4.93;;;3.50;;
56051;SDS011;41919;42.648;23.384;2022-07-29T09:58:29;3.47;;;2.90;;
56051;SDS011;41919;42.648;23.384;2022-07-29T10:00:54;2.92;;;2.60;;
56051;SDS011;41919;42.648;23.384;2022-07-29T10:03:21;3.00;;;2.80;;
56051;SDS011;41919;42.648;23.384;2022-07-29T10:06:03;2.80;;;2.60;;
56051;SDS011;41919;42.648;23.384;2022-07-29T10:08:36;3.88;;;3.00;;
56051;SDS011;41919;42.648;23.384;2022-07-29T10:11:15;6.18;;;3.72;;
56051;SDS011;41919;42.648;23.384;2022-07-29T10:13:42;5.47;;;4.32;;
56051;SDS011;41919;42.648;23.384;2022-07-29T10:16:09;5.25;;;3.95;;
56051;SDS011;41919;42.648;23.384;2022-07-29T10:18:37;4.70;;;3.78;;
56051;SDS011;41919;42.648;23.384;2022-07-29T10:21:04;4.13;;;3.72;;
56051;SDS011;41919;42.648;23.384;2022-07-29T10:23:29;4.30;;;3.63;;
56051;SDS011;41919;42.648;23.384;2022-07-29T10:25:55;3.45;;;3.15;;
56051;SDS011;41919;42.648;23.384;2022-07-29T10:28:21;2.90;;;2.70;;
56051;SDS011;41919;42.648;23.384;2022-07-29T10:30:48;3.42;;;3.13;;
56051;SDS011;41919;42.648;23.384;2022-07-29T10:34:20;5.43;;;3.63;;
56051;SDS011;41919;42.648;23.384;2022-07-29T10:39:12;3.70;;;2.60;;
56051;SDS011;41919;42.648;23.384;2022-07-29T10:44:34;4.28;;;3.00;;
56051;SDS011;41919;42.648;23.384;2022-07-29T10:47:00;3.08;;;2.88;;
56051;SDS011;41919;42.648;23.384;2022-07-29T10:49:26;3.08;;;2.88;;
56051;SDS011;41919;42.648;23.384;2022-07-29T10:52:07;3.08;;;2.78;;
56051;SDS011;41919;42.648;23.384;2022-07-29T10:57:29;3.38;;;2.45;;
56051;SDS011;41919;42.648;23.384;2022-07-29T11:05:08;3.25;;;3.00;;
56051;SDS011;41919;42.648;23.384;2022-07-29T11:10:37;3.72;;;2.83;;
56051;SDS011;41919;42.648;23.384;2022-07-29T11:13:03;3.28;;;2.97;;
56051;SDS011;41919;42.648;23.384;2022-07-29T11:15:29;5.05;;;3.05;;
56051;SDS011;41919;42.648;23.384;2022-07-29T11:18:14;2.83;;;2.60;;
56051;SDS011;41919;42.648;23.384;2022-07-29T11:20:43;3.95;;;3.55;;
56051;SDS011;41919;42.648;23.384;2022-07-29T11:23:20;3.38;;;3.08;;
56051;SDS011;41919;42.648;23.384;2022-07-29T11:37:12;3.72;;;3.33;;
56051;SDS011;41919;42.648;23.384;2022-07-29T11:39:31;7.50;;;3.17;;
56051;SDS011;41919;42.648;23.384;2022-07-29T11:45:02;5.43;;;3.10;;
56051;SDS011;41919;42.648;23.384;2022-07-29T11:47:28;3.80;;;3.38;;
56051;SDS011;41919;42.648;23.384;2022-07-29T11:49:57;4.05;;;3.42;;
56051;SDS011;41919;42.648;23.384;2022-07-29T11:52:34;3.85;;;3.55;;
56051;SDS011;41919;42.648;23.384;2022-07-29T11:55:14;3.85;;;3.17;;
56051;SDS011;41919;42.648;23.384;2022-07-29T11:57:52;9.45;;;7.65;;
56051;SDS011;41919;42.648;23.384;2022-07-29T12:02:56;4.40;;;4.00;;
56051;SDS011;41919;42.648;23.384;2022-07-29T12:05:30;6.47;;;4.90;;
56051;SDS011;41919;42.648;23.384;2022-07-29T12:08:15;4.07;;;3.70;;
56051;SDS011;41919;42.648;23.384;2022-07-29T12:10:47;3.80;;;3.50;;
56051;SDS011;41919;42.648;23.384;2022-07-29T12:13:14;4.47;;;4.07;;
56051;SDS011;41919;42.648;23.384;2022-07-29T12:15:40;4.38;;;3.97;;
56051;SDS011;41919;42.648;23.384;2022-07-29T12:18:10;4.90;;;4.40;;
56051;SDS011;41919;42.648;23.384;2022-07-29T12:23:05;5.38;;;4.80;;
56051;SDS011;41919;42.648;23.384;2022-07-29T12:25:33;4.47;;;4.10;;
56051;SDS011;41919;42.648;23.384;2022-07-29T12:28:01;5.22;;;4.63;;
56051;SDS011;41919;42.648;23.384;2022-07-29T12:30:35;4.85;;;4.45;;
56051;SDS011;41919;42.648;23.384;2022-07-29T12:35:54;6.18;;;4.55;;
56051;SDS011;41919;42.648;23.384;2022-07-29T12:38:21;5.85;;;4.65;;
56051;SDS011;41919;42.648;23.384;2022-07-29T12:40:48;4.25;;;3.95;;
56051;SDS011;41919;42.648;23.384;2022-07-29T12:43:19;10.30;;;8.52;;
56051;SDS011;41919;42.648;23.384;2022-07-29T12:45:50;6.45;;;4.47;;
56051;SDS011;41919;42.648;23.384;2022-07-29T12:48:32;5.43;;;4.00;;
56051;SDS011;41919;42.648;23.384;2022-07-29T12:51:05;7.25;;;4.20;;
56051;SDS011;41919;42.648;23.384;2022-07-29T12:53:31;4.47;;;4.07;;
56051;SDS011;41919;42.648;23.384;2022-07-29T12:55:58;4.35;;;3.95;;
56051;SDS011;41919;42.648;23.384;2022-07-29T12:58:30;4.35;;;3.95;;
56051;SDS011;41919;42.648;23.384;2022-07-29T13:03:28;4.07;;;3.67;;
56051;SDS011;41919;42.648;23.384;2022-07-29T13:05:54;4.43;;;4.00;;
56051;SDS011;41919;42.648;23.384;2022-07-29T13:08:19;4.53;;;4.22;;
56051;SDS011;41919;42.648;23.384;2022-07-29T13:10:45;4.22;;;3.92;;
56051;SDS011;41919;42.648;23.384;2022-07-29T13:13:12;4.00;;;3.70;;
56051;SDS011;41919;42.648;23.384;2022-07-29T13:15:41;4.88;;;4.03;;
56051;SDS011;41919;42.648;23.384;2022-07-29T13:18:26;4.90;;;4.30;;
56051;SDS011;41919;42.648;23.384;2022-07-29T13:20:56;4.53;;;4.13;;
56051;SDS011;41919;42.648;23.384;2022-07-29T13:23:22;4.25;;;3.85;;
56051;SDS011;41919;42.648;23.384;2022-07-29T13:25:48;4.18;;;3.75;;
56051;SDS011;41919;42.648;23.384;2022-07-29T13:28:13;13.63;;;10.10;;
56051;SDS011;41919;42.648;23.384;2022-07-29T13:30:39;5.25;;;4.30;;
56051;SDS011;41919;42.648;23.384;2022-07-29T13:33:06;4.28;;;3.88;;
56051;SDS011;41919;42.648;23.384;2022-07-29T13:35:31;3.70;;;3.40;;
56051;SDS011;41919;42.648;23.384;2022-07-29T13:37:57;4.85;;;3.83;;
56051;SDS011;41919;42.648;23.384;2022-07-29T13:40:22;3.97;;;3.67;;
56051;SDS011;41919;42.648;23.384;2022-07-29T13:42:48;4.38;;;3.97;;
56051;SDS011;41919;42.648;23.384;2022-07-29T13:45:13;4.22;;;3.83;;
56051;SDS011;41919;42.648;23.384;2022-07-29T13:47:39;3.85;;;3.55;;
56051;SDS011;41919;42.648;23.384;2022-07-29T13:50:05;4.30;;;3.90;;
56051;SDS011;41919;42.648;23.384;2022-07-29T13:52:32;4.70;;;4.10;;
56051;SDS011;41919;42.648;23.384;2022-07-29T13:54:59;4.10;;;3.70;;
56051;SDS011;41919;42.648;23.384;2022-07-29T13:57:24;4.43;;;3.90;;
56051;SDS011;41919;42.648;23.384;2022-07-29T13:59:50;4.50;;;4.00;;
56051;SDS011;41919;42.648;23.384;2022-07-29T14:02:16;4.13;;;3.72;;
56051;SDS011;41919;42.648;23.384;2022-07-29T14:04:42;4.13;;;3.60;;
56051;SDS011;41919;42.648;23.384;2022-07-29T14:07:08;14.43;;;10.48;;
56051;SDS011;41919;42.648;23.384;2022-07-29T14:09:35;4.35;;;3.95;;
56051;SDS011;41919;42.648;23.384;2022-07-29T14:12:00;4.25;;;3.90;;
56051;SDS011;41919;42.648;23.384;2022-07-29T14:14:27;3.88;;;3.58;;
56051;SDS011;41919;42.648;23.384;2022-07-29T14:16:53;4.55;;;3.85;;
56051;SDS011;41919;42.648;23.384;2022-07-29T14:19:19;4.13;;;3.67;;
56051;SDS011;41919;42.648;23.384;2022-07-29T14:21:44;3.85;;;3.55;;
56051;SDS011;41919;42.648;23.384;2022-07-29T14:24:10;4.72;;;3.67;;
56051;SDS011;41919;42.648;23.384;2022-07-29T14:26:35;4.10;;;3.80;;
56051;SDS011;41919;42.648;23.384;2022-07-29T14:29:01;4.13;;;3.72;;
56051;SDS011;41919;42.648;23.384;2022-07-29T14:31:26;4.93;;;4.00;;
56051;SDS011;41919;42.648;23.384;2022-07-29T14:33:52;6.57;;;3.67;;
56051;SDS011;41919;42.648;23.384;2022-07-29T14:36:17;4.32;;;3.92;;
56051;SDS011;41919;42.648;23.384;2022-07-29T14:38:43;4.05;;;3.75;;
56051;SDS011;41919;42.648;23.384;2022-07-29T14:41:08;4.20;;;3.80;;
56051;SDS011;41919;42.648;23.384;2022-07-29T14:43:34;4.25;;;3.80;;
56051;SDS011;41919;42.648;23.384;2022-07-29T14:46:00;4.78;;;4.38;;
56051;SDS011;41919;42.648;23.384;2022-07-29T14:48:26;4.97;;;4.47;;
56051;SDS011;41919;42.648;23.384;2022-07-29T14:50:51;4.68;;;4.20;;
56051;SDS011;41919;42.648;23.384;2022-07-29T14:53:17;4.45;;;4.05;;
56051;SDS011;41919;42.648;23.384;2022-07-29T14:55:42;4.15;;;3.75;;
56051;SDS011;41919;42.648;23.384;2022-07-29T14:58:09;4.50;;;4.03;;
56051;SDS011;41919;42.648;23.384;2022-07-29T15:00:34;15.23;;;13.30;;
56051;SDS011;41919;42.648;23.384;2022-07-29T15:03:01;5.35;;;4.85;;
56051;SDS011;41919;42.648;23.384;2022-07-29T15:05:28;4.78;;;4.07;;
56051;SDS011;41919;42.648;23.384;2022-07-29T15:07:57;4.82;;;4.43;;
56051;SDS011;41919;42.648;23.384;2022-07-29T15:10:23;4.53;;;3.83;;
56051;SDS011;41919;42.648;23.384;2022-07-29T15:12:51;4.13;;;3.83;;
56051;SDS011;41919;42.648;23.384;2022-07-29T15:15:16;8.18;;;4.25;;
56051;SDS011;41919;42.648;23.384;2022-07-29T15:17:42;3.67;;;3.38;;
56051;SDS011;41919;42.648;23.384;2022-07-29T15:20:07;4.38;;;3.60;;
56051;SDS011;41919;42.648;23.384;2022-07-29T15:22:33;3.53;;;3.22;;
56051;SDS011;41919;42.648;23.384;2022-07-29T15:24:59;4.10;;;3.80;;
56051;SDS011;41919;42.648;23.384;2022-07-29T15:27:24;3.90;;;3.50;;
56051;SDS011;41919;42.648;23.384;2022-07-29T15:29:50;3.83;;;3.53;;
56051;SDS011;41919;42.648;23.384;2022-07-29T15:32:16;3.83;;;3.10;;
56051;SDS011;41919;42.648;23.384;2022-07-29T15:34:41;3.90;;;3.50;;
56051;SDS011;41919;42.648;23.384;2022-07-29T15:37:07;3.78;;;3.35;;